createdAt,value
2022-11-23T00:01:34.864Z,55.7
2022-11-23T00:03:18.303Z,55.7
2022-11-23T00:05:01.710Z,55.7
2022-11-23T00:08:28.161Z,55.7
2022-11-23T00:10:11.517Z,55.7
2022-11-23T00:11:54.957Z,55.7
2022-11-23T00:13:38.317Z,55.7
2022-11-23T00:15:21.703Z,55.7
2022-11-23T00:17:05.147Z,55.7
2022-11-23T00:18:48.532Z,55.7
2022-11-23T00:20:31.946Z,55.7
2022-11-23T00:22:15.630Z,55.7
2022-11-23T00:23:59.072Z,55.7
2022-11-23T00:25:42.539Z,55.7
2022-11-23T00:27:25.876Z,55.7
2022-11-23T00:29:09.278Z,55.7
2022-11-23T00:30:52.586Z,55.7
2022-11-23T00:32:36.125Z,55.7
2022-11-23T00:34:19.478Z,55.7
2022-11-23T00:37:45.861Z,55.7
2022-11-23T00:39:29.250Z,55.7
2022-11-23T00:41:12.667Z,55.6
2022-11-23T00:42:56.042Z,55.7
2022-11-23T00:44:39.550Z,55.7
2022-11-23T00:46:22.865Z,55.6
2022-11-23T00:48:06.225Z,55.6
2022-11-23T00:53:15.481Z,55.7
2022-11-23T00:54:58.903Z,55.8
2022-11-23T00:56:42.299Z,56
2022-11-23T00:58:25.673Z,56
2022-11-23T01:00:09.084Z,56
2022-11-23T01:01:52.465Z,56.1
2022-11-23T01:03:35.931Z,56.1
2022-11-23T01:08:45.095Z,56.2
2022-11-23T01:12:11.900Z,56.2
2022-11-23T01:13:55.306Z,56.2
2022-11-23T01:15:38.708Z,56.2
2022-11-23T01:17:22.079Z,56.2
2022-11-23T01:19:05.524Z,56.2
2022-11-23T01:20:48.879Z,56.2
2022-11-23T01:24:15.360Z,56.2
2022-11-23T01:25:58.754Z,56.2
2022-11-23T01:27:42.141Z,56.1
2022-11-23T01:29:25.683Z,56.1
2022-11-23T01:31:08.929Z,56.1
2022-11-23T01:32:52.391Z,56.1
2022-11-23T01:34:35.807Z,56.1
2022-11-23T01:39:45.077Z,56.1
2022-11-23T01:41:28.387Z,56.1
2022-11-23T01:43:11.765Z,56
2022-11-23T01:44:55.177Z,56
2022-11-23T01:46:38.619Z,56
2022-11-23T01:48:21.954Z,56
2022-11-23T01:50:05.495Z,56
2022-11-23T01:51:48.911Z,56
2022-11-23T01:53:32.571Z,56
2022-11-23T01:55:15.892Z,56
2022-11-23T01:56:59.362Z,56
2022-11-23T01:58:42.727Z,55.9
2022-11-23T02:00:26.041Z,55.9
2022-11-23T02:02:09.515Z,55.9
2022-11-23T02:03:52.832Z,55.9
2022-11-23T02:05:36.453Z,55.9
2022-11-23T02:09:02.700Z,55.9
2022-11-23T02:10:46.106Z,55.9
2022-11-23T02:12:29.655Z,55.9
2022-11-23T02:14:13.114Z,55.9
2022-11-23T02:15:56.518Z,55.9
2022-11-23T02:17:39.841Z,55.9
2022-11-23T02:19:23.282Z,55.8
2022-11-23T02:21:06.580Z,55.8
2022-11-23T02:24:33.109Z,55.8
2022-11-23T02:26:16.577Z,55.8
2022-11-23T02:27:59.851Z,55.8
2022-11-23T02:29:43.293Z,55.8
2022-11-23T02:31:26.662Z,55.8
2022-11-23T02:33:10.141Z,55.8
2022-11-23T02:34:53.404Z,55.8
2022-11-23T02:36:36.715Z,55.8
2022-11-23T02:38:20.578Z,55.8
2022-11-23T02:40:03.895Z,55.8
2022-11-23T02:41:47.329Z,55.8
2022-11-23T02:43:30.694Z,55.8
2022-11-23T02:45:14.051Z,55.8
2022-11-23T02:46:57.404Z,55.8
2022-11-23T02:48:40.904Z,55.7
2022-11-23T02:50:24.208Z,55.7
2022-11-23T02:53:50.766Z,55.7
2022-11-23T02:55:34.250Z,55.7
2022-11-23T02:57:17.584Z,55.7
2022-11-23T02:59:00.942Z,55.7
2022-11-23T03:00:44.328Z,55.7
2022-11-23T03:02:27.834Z,55.7
2022-11-23T03:04:11.165Z,55.7
2022-11-23T03:05:54.550Z,55.6
2022-11-23T03:09:21.081Z,55.6
2022-11-23T03:11:04.333Z,55.6
2022-11-23T03:12:47.724Z,55.6
2022-11-23T03:14:31.107Z,55.6
2022-11-23T03:16:14.579Z,55.6
2022-11-23T03:17:57.989Z,55.6
2022-11-23T03:19:41.491Z,55.6
2022-11-23T03:21:24.680Z,55.6
2022-11-23T03:24:51.251Z,55.6
2022-11-23T03:26:34.548Z,55.6
2022-11-23T03:28:17.956Z,55.6
2022-11-23T03:30:01.366Z,55.6
2022-11-23T03:31:44.758Z,55.6
2022-11-23T03:33:28.307Z,55.6
2022-11-23T03:35:11.697Z,55.6
2022-11-23T03:36:55.052Z,55.5
2022-11-23T03:40:21.445Z,55.5
2022-11-23T03:42:04.906Z,55.5
2022-11-23T03:43:48.372Z,55.5
2022-11-23T03:45:31.651Z,55.5
2022-11-23T03:47:15.149Z,55.5
2022-11-23T03:48:58.463Z,55.5
2022-11-23T03:50:41.879Z,55.5
2022-11-23T03:52:25.184Z,55.5
2022-11-23T03:55:51.732Z,55.5
2022-11-23T03:57:35.161Z,55.5
2022-11-23T03:59:18.548Z,55.5
2022-11-23T04:01:01.934Z,55.4
2022-11-23T04:02:45.246Z,55.4
2022-11-23T04:04:28.727Z,55.4
2022-11-23T04:06:12.085Z,55.4
2022-11-23T04:07:55.544Z,55.4
2022-11-23T04:11:22.101Z,55.4
2022-11-23T04:13:05.358Z,55.4
2022-11-23T04:14:48.729Z,55.4
2022-11-23T04:16:32.167Z,55.4
2022-11-23T04:18:15.571Z,55.3
2022-11-23T04:19:58.892Z,55.3
2022-11-23T04:21:42.377Z,55.3
2022-11-23T04:23:25.719Z,55.4
2022-11-23T04:26:52.138Z,55.3
2022-11-23T04:28:35.611Z,55.3
2022-11-23T04:30:19.066Z,55.3
2022-11-23T04:32:02.326Z,55.4
2022-11-23T04:33:45.790Z,55.3
2022-11-23T04:35:29.325Z,55.3
2022-11-23T04:37:12.575Z,55.3
2022-11-23T04:38:56.006Z,55.4
2022-11-23T04:40:39.713Z,55.3
2022-11-23T04:42:23.065Z,55.3
2022-11-23T04:44:06.530Z,55.3
2022-11-23T04:45:49.886Z,55.3
2022-11-23T04:47:33.217Z,55.3
2022-11-23T04:49:16.604Z,55.3
2022-11-23T04:51:00.020Z,55.3
2022-11-23T04:52:43.516Z,55.3
2022-11-23T04:56:09.917Z,55.3
2022-11-23T04:57:53.325Z,55.3
2022-11-23T04:59:36.662Z,55.3
2022-11-23T05:01:20.101Z,55.3
2022-11-23T05:03:03.535Z,55.3
2022-11-23T05:04:46.917Z,55.3
2022-11-23T05:06:30.261Z,55.3
2022-11-23T05:08:13.650Z,55.3
2022-11-23T05:11:40.119Z,55.2
2022-11-23T05:13:23.588Z,55.2
2022-11-23T05:15:07.049Z,55.2
2022-11-23T05:16:50.401Z,55.2
2022-11-23T05:18:33.768Z,55.2
2022-11-23T05:20:17.185Z,55.2
2022-11-23T05:22:00.613Z,55.2
2022-11-23T05:23:43.878Z,55.2
2022-11-23T05:28:53.900Z,55.2
2022-11-23T05:30:37.145Z,55.1
2022-11-23T05:32:20.550Z,55.1
2022-11-23T05:34:04.039Z,55.1
2022-11-23T05:35:47.346Z,55.2
2022-11-23T05:37:30.821Z,55.2
2022-11-23T05:39:14.244Z,55.2
2022-11-23T05:40:57.935Z,55.2
2022-11-23T05:42:41.241Z,55.2
2022-11-23T05:44:24.629Z,55.2
2022-11-23T05:46:08.157Z,55.2
2022-11-23T05:47:51.532Z,55.1
2022-11-23T05:49:34.944Z,55.1
2022-11-23T05:51:18.300Z,55.1
2022-11-23T05:53:01.611Z,55.1
2022-11-23T05:56:28.132Z,55.1
2022-11-23T05:58:11.492Z,55.1
2022-11-23T05:59:55.057Z,55.1
2022-11-23T06:01:38.285Z,55.1
2022-11-23T06:03:21.790Z,55.1
2022-11-23T06:05:05.151Z,55
2022-11-23T06:06:48.497Z,55.1
2022-11-23T06:08:31.966Z,55.1
2022-11-23T06:11:58.424Z,55
2022-11-23T06:13:41.881Z,55
2022-11-23T06:15:25.139Z,55
2022-11-23T06:17:08.520Z,55
2022-11-23T06:18:51.919Z,55
2022-11-23T06:20:35.371Z,55
2022-11-23T06:22:18.716Z,55
2022-11-23T06:24:02.332Z,55
2022-11-23T06:27:28.719Z,55
2022-11-23T06:29:12.061Z,55
2022-11-23T06:30:55.440Z,55
2022-11-23T06:32:38.825Z,55
2022-11-23T06:34:22.148Z,54.9
2022-11-23T06:36:05.676Z,55
2022-11-23T06:37:48.964Z,54.9
2022-11-23T06:39:32.341Z,54.9
2022-11-23T06:42:58.951Z,54.9
2022-11-23T06:44:42.207Z,54.8
2022-11-23T06:46:25.615Z,54.8
2022-11-23T06:48:09.104Z,54.7
2022-11-23T06:49:52.491Z,54.7
2022-11-23T06:51:35.890Z,54.7
2022-11-23T06:53:19.204Z,54.7
2022-11-23T06:55:02.606Z,54.7
2022-11-23T06:58:29.095Z,54.6
2022-11-23T07:00:12.527Z,54.6
2022-11-23T07:01:55.917Z,54.6
2022-11-23T07:03:39.326Z,54.6
2022-11-23T07:05:22.819Z,54.6
2022-11-23T07:07:06.192Z,54.6
2022-11-23T07:08:49.425Z,54.6
2022-11-23T07:10:32.901Z,54.6
2022-11-23T07:13:59.373Z,54.6
2022-11-23T07:15:42.741Z,54.5
2022-11-23T07:17:26.162Z,54.5
2022-11-23T07:19:09.573Z,54.5
2022-11-23T07:20:53.046Z,54.6
2022-11-23T07:22:36.339Z,54.5
2022-11-23T07:24:19.677Z,54.5
2022-11-23T07:26:03.131Z,54.4
2022-11-23T07:29:29.610Z,54.4
2022-11-23T07:32:56.433Z,54.4
2022-11-23T07:34:39.846Z,54.4
2022-11-23T07:36:23.133Z,54.4
2022-11-23T07:38:06.708Z,53
2022-11-23T07:39:49.932Z,46.2
2022-11-23T07:44:59.168Z,44.6
2022-11-23T07:46:42.625Z,45.3
2022-11-23T07:48:26.229Z,45.7
2022-11-23T07:50:09.469Z,46.5
2022-11-23T07:51:52.782Z,47
2022-11-23T07:53:36.205Z,46.9
2022-11-23T07:55:19.610Z,47.2
2022-11-23T07:57:02.945Z,47.2
2022-11-23T08:00:29.473Z,47.8
2022-11-23T08:02:12.805Z,48.1
2022-11-23T08:03:56.276Z,48.3
2022-11-23T08:05:39.839Z,48.5
2022-11-23T08:07:23.117Z,48.7
2022-11-23T08:09:06.407Z,48.8
2022-11-23T08:10:49.913Z,49
2022-11-23T08:12:33.188Z,49.1
2022-11-23T08:15:59.804Z,49.2
2022-11-23T08:17:43.183Z,49.3
2022-11-23T08:19:26.612Z,49.5
2022-11-23T08:21:09.978Z,49.4
2022-11-23T08:22:53.262Z,49.5
2022-11-23T08:24:36.871Z,49.5
2022-11-23T08:26:20.201Z,49.6
2022-11-23T08:28:03.437Z,49.7
2022-11-23T08:29:47.270Z,49.7
2022-11-23T08:31:30.531Z,49.7
2022-11-23T08:33:14.016Z,49.8
2022-11-23T08:34:57.412Z,49.8
2022-11-23T08:36:40.718Z,49.8
2022-11-23T08:38:24.169Z,49.9
2022-11-23T08:40:07.546Z,50
2022-11-23T08:41:51.016Z,50
2022-11-23T08:45:17.540Z,50.1
2022-11-23T08:47:00.809Z,50.1
2022-11-23T08:48:44.178Z,50.1
2022-11-23T08:50:27.568Z,50.1
2022-11-23T08:52:11.143Z,50.1
2022-11-23T08:53:54.469Z,50.1
2022-11-23T08:55:37.970Z,50.1
2022-11-23T08:57:21.335Z,50.1
2022-11-23T08:59:04.944Z,50.1
2022-11-23T09:00:48.422Z,50.1
2022-11-23T09:02:31.748Z,50.1
2022-11-23T09:04:15.174Z,50.1
2022-11-23T09:05:58.551Z,50.1
2022-11-23T09:07:41.849Z,50.1
2022-11-23T09:09:25.311Z,50.1
2022-11-23T09:11:08.713Z,50.1
2022-11-23T09:16:17.923Z,50.1
2022-11-23T09:18:01.453Z,50.1
2022-11-23T09:19:44.670Z,50.1
2022-11-23T09:21:28.080Z,50.1
2022-11-23T09:23:11.477Z,50.2
2022-11-23T09:24:54.910Z,50.2
2022-11-23T09:26:38.390Z,50.2
2022-11-23T09:28:21.736Z,50.2
2022-11-23T09:31:48.318Z,50.3
2022-11-23T09:33:31.585Z,50.3
2022-11-23T09:35:14.911Z,50.3
2022-11-23T09:36:58.423Z,50.3
2022-11-23T09:38:41.739Z,50.3
2022-11-23T09:40:25.101Z,50.3
2022-11-23T09:42:08.601Z,50.3
2022-11-23T09:43:51.931Z,50.3
2022-11-23T09:47:18.539Z,50.3
2022-11-23T09:49:01.842Z,50.3
2022-11-23T09:50:45.215Z,50.3
2022-11-23T09:52:28.692Z,50.3
2022-11-23T09:54:11.997Z,50.3
2022-11-23T09:55:55.509Z,50.3
2022-11-23T09:57:38.861Z,50.3
2022-11-23T10:02:48.069Z,50.4
2022-11-23T10:04:31.603Z,50.4
2022-11-23T10:06:15.017Z,50.4
2022-11-23T10:07:58.232Z,50.4
2022-11-23T10:09:41.560Z,50.4
2022-11-23T10:11:24.993Z,50.4
2022-11-23T10:13:08.439Z,50.4
2022-11-23T10:14:51.826Z,50.4
2022-11-23T10:18:18.229Z,50.4
2022-11-23T10:20:01.670Z,50.4
2022-11-23T10:21:45.018Z,50.4
2022-11-23T10:23:28.617Z,50.5
2022-11-23T10:25:11.880Z,50.5
2022-11-23T10:26:55.358Z,50.5
2022-11-23T10:28:38.605Z,50.7
2022-11-23T10:30:22.187Z,50.9
2022-11-23T10:33:48.463Z,50.8
2022-11-23T10:35:31.999Z,50.9
2022-11-23T10:37:15.270Z,51
2022-11-23T10:38:58.876Z,50.9
2022-11-23T10:40:42.053Z,51
2022-11-23T10:42:25.521Z,50.9
2022-11-23T10:44:08.978Z,50.9
2022-11-23T10:45:52.244Z,51
2022-11-23T10:47:36.048Z,50.9
2022-11-23T10:49:19.464Z,51
2022-11-23T10:51:02.835Z,51
2022-11-23T10:52:46.129Z,51
2022-11-23T10:54:29.535Z,51
2022-11-23T10:56:13.033Z,51
2022-11-23T10:57:56.488Z,50.9
2022-11-23T10:59:39.836Z,50.9
2022-11-23T11:03:06.250Z,50.8
2022-11-23T11:04:49.608Z,50.8
2022-11-23T11:06:33.017Z,50.8
2022-11-23T11:08:16.507Z,50.8
2022-11-23T11:09:59.769Z,50.8
2022-11-23T11:11:43.204Z,50.8
2022-11-23T11:13:26.628Z,50.8
2022-11-23T11:15:10.021Z,50.8
2022-11-23T11:20:19.826Z,50.8
2022-11-23T11:22:03.238Z,50.9
2022-11-23T11:23:46.651Z,50.9
2022-11-23T11:25:30.071Z,50.9
2022-11-23T11:27:13.423Z,51
2022-11-23T11:28:56.834Z,51.2
2022-11-23T11:34:06.053Z,51.3
2022-11-23T11:35:49.443Z,51.2
2022-11-23T11:37:32.997Z,51.3
2022-11-23T11:39:16.245Z,51.3
2022-11-23T11:40:59.626Z,51.4
2022-11-23T11:42:43.155Z,51.3
2022-11-23T11:44:26.505Z,51.3
2022-11-23T11:46:09.822Z,51.3
2022-11-23T11:47:53.538Z,51.3
2022-11-23T11:49:36.987Z,51.5
2022-11-23T11:51:20.327Z,51.5
2022-11-23T11:53:03.810Z,51.5
2022-11-23T11:54:47.211Z,51.5
2022-11-23T11:56:30.511Z,51.5
2022-11-23T11:58:13.910Z,51.4
2022-11-23T11:59:57.464Z,51.4
2022-11-23T12:03:23.814Z,51.6
2022-11-23T12:05:07.229Z,51.6
2022-11-23T12:06:50.564Z,51.5
2022-11-23T12:08:33.999Z,51.5
2022-11-23T12:10:17.354Z,51.5
2022-11-23T12:12:00.749Z,51.5
2022-11-23T12:13:44.170Z,51.5
2022-11-23T12:15:27.551Z,51.5
2022-11-23T12:18:54.220Z,51.5
2022-11-23T12:20:37.423Z,51.5
2022-11-23T12:22:20.943Z,51.5
2022-11-23T12:24:04.388Z,51.5
2022-11-23T12:25:47.811Z,51.5
2022-11-23T12:27:31.173Z,51.6
2022-11-23T12:29:14.566Z,51.6
2022-11-23T12:30:57.958Z,51.8
2022-11-23T12:34:24.300Z,51.8
2022-11-23T12:36:07.659Z,51.8
2022-11-23T12:37:51.158Z,51.7
2022-11-23T12:39:34.453Z,51.7
2022-11-23T12:41:17.927Z,51.8
2022-11-23T12:43:01.368Z,51.7
2022-11-23T12:44:44.692Z,51.6
2022-11-23T12:46:28.032Z,51.5
2022-11-23T12:49:54.548Z,51.6
2022-11-23T12:51:38.061Z,51.6
2022-11-23T12:53:21.462Z,51.7
2022-11-23T12:55:04.883Z,51.9
2022-11-23T12:56:48.248Z,51.9
2022-11-23T12:58:31.636Z,52
2022-11-23T13:00:14.890Z,52.1
2022-11-23T13:01:58.398Z,52
2022-11-23T13:05:24.834Z,52.1
2022-11-23T13:07:08.152Z,52.1
2022-11-23T13:08:51.541Z,52.2
2022-11-23T13:10:35.072Z,52.1
2022-11-23T13:12:18.557Z,52.1
2022-11-23T13:14:01.830Z,52.2
2022-11-23T13:15:45.302Z,52.2
2022-11-23T13:20:54.521Z,52.3
2022-11-23T13:22:37.777Z,52.3
2022-11-23T13:24:21.291Z,52.2
2022-11-23T13:26:04.645Z,52.3
2022-11-23T13:27:48.119Z,52.3
2022-11-23T13:29:31.500Z,52.4
2022-11-23T13:31:14.902Z,52.5
2022-11-23T13:32:58.195Z,52.4
2022-11-23T13:34:41.992Z,52.6
2022-11-23T13:36:25.266Z,52.7
2022-11-23T13:38:08.642Z,52.6
2022-11-23T13:39:52.186Z,52.5
2022-11-23T13:41:35.657Z,52.7
2022-11-23T13:43:18.974Z,52.7
2022-11-23T13:45:02.227Z,52.7
2022-11-23T13:46:45.728Z,52.7
2022-11-23T13:50:12.204Z,52.6
2022-11-23T13:51:55.680Z,52.5
2022-11-23T13:53:39.130Z,52.6
2022-11-23T13:55:22.290Z,52.6
2022-11-23T13:57:05.853Z,52.6
2022-11-23T13:58:49.091Z,53
2022-11-23T14:00:32.663Z,52.9
2022-11-23T14:02:15.854Z,52.7
2022-11-23T14:05:42.519Z,52.7
2022-11-23T14:07:25.954Z,52.8
2022-11-23T14:09:09.129Z,52.9
2022-11-23T14:10:52.666Z,52.9
2022-11-23T14:12:36.094Z,53
2022-11-23T14:14:19.312Z,52.9
2022-11-23T14:16:02.958Z,52.9
2022-11-23T14:19:29.367Z,52.9
2022-11-23T14:21:12.677Z,53
2022-11-23T14:22:56.180Z,52.9
2022-11-23T14:24:39.606Z,52.9
2022-11-23T14:26:22.978Z,52.9
2022-11-23T14:28:06.317Z,52.9
2022-11-23T14:29:49.731Z,52.8
2022-11-23T14:31:32.959Z,52.9
2022-11-23T14:33:16.897Z,52.9
2022-11-23T14:35:00.278Z,52.9
2022-11-23T14:36:43.667Z,52.9
2022-11-23T14:38:26.983Z,52.8
2022-11-23T14:40:10.396Z,52.8
2022-11-23T14:41:53.831Z,52.8
2022-11-23T14:43:37.220Z,52.8
2022-11-23T14:45:20.421Z,52.8
2022-11-23T14:48:47.134Z,52.8
2022-11-23T14:50:30.436Z,52.8
2022-11-23T14:52:13.891Z,52.8
2022-11-23T14:53:57.292Z,52.7
2022-11-23T14:55:40.677Z,52.8
2022-11-23T14:57:24.001Z,52.8
2022-11-23T14:59:07.500Z,52.8
2022-11-23T15:00:50.857Z,52.9
2022-11-23T15:02:34.479Z,52.8
2022-11-23T15:04:17.857Z,52.8
2022-11-23T15:06:01.183Z,52.9
2022-11-23T15:07:44.663Z,52.9
2022-11-23T15:09:27.975Z,52.9
2022-11-23T15:11:11.570Z,52.9
2022-11-23T15:12:54.763Z,52.9
2022-11-23T15:14:38.151Z,52.9
2022-11-23T15:18:04.808Z,52.9
2022-11-23T15:19:48.203Z,52.9
2022-11-23T15:21:31.586Z,52.9
2022-11-23T15:23:15.004Z,52.9
2022-11-23T15:24:58.383Z,52.9
2022-11-23T15:26:41.784Z,52.9
2022-11-23T15:28:25.177Z,52.9
2022-11-23T15:30:08.569Z,52.9
2022-11-23T15:31:52.245Z,52.9
2022-11-23T15:33:35.647Z,52.9
2022-11-23T15:35:19.108Z,52.9
2022-11-23T15:37:02.292Z,52.9
2022-11-23T15:38:45.687Z,52.8
2022-11-23T15:40:29.376Z,52.9
2022-11-23T15:42:12.697Z,52.8
2022-11-23T15:43:55.879Z,52.8
2022-11-23T15:47:22.471Z,52.8
2022-11-23T15:49:05.973Z,52.8
2022-11-23T15:50:49.250Z,52.8
2022-11-23T15:52:32.727Z,52.8
2022-11-23T15:54:16.096Z,52.8
2022-11-23T15:55:59.580Z,52.8
2022-11-23T15:57:42.973Z,52.8
2022-11-23T15:59:26.309Z,52.8
2022-11-23T16:04:35.497Z,52.7
2022-11-23T16:06:18.770Z,47.8
2022-11-23T16:08:02.326Z,43.4
2022-11-23T16:09:45.544Z,42.8
2022-11-23T16:11:29.241Z,43.7
2022-11-23T16:13:12.461Z,44.8
2022-11-23T16:14:55.755Z,44.7
2022-11-23T16:16:39.255Z,44.6
2022-11-23T16:21:48.615Z,45.6
2022-11-23T16:23:31.869Z,45.9
2022-11-23T16:25:15.280Z,46.6
2022-11-23T16:26:58.749Z,47.1
2022-11-23T16:28:42.086Z,47
2022-11-23T16:30:25.461Z,47.1
2022-11-23T16:32:08.865Z,47.1
2022-11-23T16:33:52.318Z,47.7
2022-11-23T16:37:18.803Z,47.6
2022-11-23T16:39:02.190Z,48
2022-11-23T16:40:45.410Z,48.1
2022-11-23T16:42:29.005Z,48.4
2022-11-23T16:44:12.439Z,48.6
2022-11-23T16:45:55.855Z,48.6
2022-11-23T16:47:39.089Z,48.8
2022-11-23T16:49:22.497Z,48.8
2022-11-23T16:54:31.639Z,49
2022-11-23T16:56:15.230Z,49
2022-11-23T16:57:58.587Z,49.1
2022-11-23T16:59:42.039Z,49.2
2022-11-23T17:01:25.409Z,49.1
2022-11-23T17:03:08.623Z,49.1
2022-11-23T17:04:52.212Z,49.1
2022-11-23T17:06:35.568Z,49.2
2022-11-23T17:10:02.065Z,49.3
2022-11-23T17:11:45.455Z,49.3
2022-11-23T17:13:28.857Z,49.3
2022-11-23T17:15:12.286Z,49.3
2022-11-23T17:16:55.668Z,49.3
2022-11-23T17:18:39.043Z,49.4
2022-11-23T17:20:22.406Z,49.4
2022-11-23T17:22:05.852Z,49.4
2022-11-23T17:25:32.330Z,49.4
2022-11-23T17:27:15.535Z,49.4
2022-11-23T17:28:58.937Z,49.4
2022-11-23T17:30:42.472Z,49.4
2022-11-23T17:32:25.933Z,49.5
2022-11-23T17:34:09.288Z,49.4
2022-11-23T17:35:52.528Z,49.4
2022-11-23T17:41:01.927Z,49.5
2022-11-23T17:42:45.376Z,49.5
2022-11-23T17:44:28.677Z,49.5
2022-11-23T17:46:12.107Z,49.5
2022-11-23T17:47:55.515Z,49.5
2022-11-23T17:49:38.941Z,49.6
2022-11-23T17:51:22.335Z,49.7
2022-11-23T17:56:31.598Z,49.9
2022-11-23T17:58:14.923Z,49.9
2022-11-23T17:59:58.353Z,49.9
2022-11-23T18:01:41.794Z,49.9
2022-11-23T18:03:25.066Z,50
2022-11-23T18:05:08.493Z,50
2022-11-23T18:06:51.747Z,50
2022-11-23T18:10:18.417Z,50
2022-11-23T18:12:01.721Z,50
2022-11-23T18:13:45.231Z,50
2022-11-23T18:15:28.488Z,50.1
2022-11-23T18:17:11.840Z,50.1
2022-11-23T18:18:55.363Z,50.1
2022-11-23T18:20:38.689Z,50.1
2022-11-23T18:22:22.101Z,50.1
2022-11-23T18:25:48.595Z,50.1
2022-11-23T18:27:32.046Z,50.1
2022-11-23T18:29:15.373Z,50.2
2022-11-23T18:30:58.724Z,50.2
2022-11-23T18:32:42.196Z,50.2
2022-11-23T18:34:25.637Z,50.3
2022-11-23T18:36:08.846Z,50.3
2022-11-23T18:37:52.367Z,50.3
2022-11-23T18:39:36.095Z,50.3
2022-11-23T18:41:19.444Z,50.3
2022-11-23T18:43:02.832Z,50.4
2022-11-23T18:44:46.196Z,50.4
2022-11-23T18:46:29.514Z,50.4
2022-11-23T18:48:13.003Z,50.4
2022-11-23T18:49:56.365Z,50.4
2022-11-23T18:51:39.728Z,50.4
2022-11-23T18:55:06.246Z,50.5
2022-11-23T18:58:32.988Z,50.5
2022-11-23T19:00:16.549Z,50.5
2022-11-23T19:01:59.890Z,50.5
2022-11-23T19:03:43.216Z,50.5
2022-11-23T19:05:26.626Z,50.5
2022-11-23T19:07:10.108Z,50.5
2022-11-23T19:10:36.582Z,50.6
2022-11-23T19:12:19.892Z,50.6
2022-11-23T19:14:03.295Z,50.6
2022-11-23T19:15:46.807Z,50.7
2022-11-23T19:17:30.009Z,50.7
2022-11-23T19:19:13.592Z,50.8
2022-11-23T19:20:56.917Z,50.8
2022-11-23T19:22:40.192Z,50.8
2022-11-23T19:26:06.669Z,50.8
2022-11-23T19:27:50.132Z,50.8
2022-11-23T19:29:33.575Z,50.8
2022-11-23T19:31:16.943Z,50.8
2022-11-23T19:33:00.247Z,50.9
2022-11-23T19:34:43.656Z,50.9
2022-11-23T19:36:27.060Z,50.9
2022-11-23T19:39:54.308Z,50.9
2022-11-23T19:41:37.542Z,50.9
2022-11-23T19:43:21.010Z,50.9
2022-11-23T19:45:04.355Z,50.9
2022-11-23T19:46:47.736Z,50.9
2022-11-23T19:48:31.161Z,50.9
2022-11-23T19:50:14.664Z,51
2022-11-23T19:51:57.927Z,51
2022-11-23T19:55:24.553Z,51
2022-11-23T19:57:07.842Z,51
2022-11-23T19:58:51.349Z,51.1
2022-11-23T20:00:34.710Z,51.1
2022-11-23T20:02:17.972Z,51.1
2022-11-23T20:04:01.381Z,51.1
2022-11-23T20:05:44.865Z,51.1
2022-11-23T20:07:28.328Z,51.1
2022-11-23T20:09:12.018Z,51
2022-11-23T20:10:55.362Z,51.1
2022-11-23T20:12:38.758Z,51.1
2022-11-23T20:14:22.141Z,51.1
2022-11-23T20:16:05.516Z,51.1
2022-11-23T20:17:48.959Z,51.1
2022-11-23T20:19:32.415Z,51.1
2022-11-23T20:21:15.651Z,51.1
2022-11-23T20:24:42.195Z,51.1
2022-11-23T20:26:25.520Z,51.1
2022-11-23T20:28:08.942Z,51.1
2022-11-23T20:29:52.467Z,51.1
2022-11-23T20:31:35.766Z,51.1
2022-11-23T20:33:19.117Z,51.1
2022-11-23T20:35:02.596Z,51.1
2022-11-23T20:36:45.921Z,51.1
2022-11-23T20:38:29.586Z,51.1
2022-11-23T20:40:13.061Z,51.2
2022-11-23T20:41:56.384Z,51.1
2022-11-23T20:43:39.786Z,51.2
2022-11-23T20:45:23.172Z,51.2
2022-11-23T20:48:49.962Z,51.2
2022-11-23T20:50:33.364Z,51.2
2022-11-23T20:55:42.647Z,51.2
2022-11-23T20:57:26.140Z,51.2
2022-11-23T20:59:09.486Z,51.3
2022-11-23T21:00:52.802Z,51.3
2022-11-23T21:02:36.195Z,51.3
2022-11-23T21:04:19.640Z,51.3
2022-11-23T21:06:03.040Z,51.3
2022-11-23T21:07:46.394Z,51.3
2022-11-23T21:11:12.848Z,51.4
2022-11-23T21:12:56.497Z,51.3
2022-11-23T21:14:39.808Z,51.4
2022-11-23T21:16:23.249Z,51.4
2022-11-23T21:18:06.438Z,51.4
2022-11-23T21:19:49.963Z,51.4
2022-11-23T21:21:33.260Z,51.4
2022-11-23T21:23:16.805Z,51.4
2022-11-23T21:26:43.367Z,51.4
2022-11-23T21:28:26.657Z,51.4
2022-11-23T21:30:10.047Z,51.5
2022-11-23T21:31:53.468Z,51.5
2022-11-23T21:33:36.863Z,51.5
2022-11-23T21:35:20.274Z,51.5
2022-11-23T21:37:03.701Z,51.5
2022-11-23T21:38:46.873Z,51.6
2022-11-23T21:42:13.536Z,51.6
2022-11-23T21:43:56.731Z,51.6
2022-11-23T21:45:40.153Z,51.6
2022-11-23T21:47:23.785Z,51.6
2022-11-23T21:49:07.115Z,51.6
2022-11-23T21:50:50.543Z,51.6
2022-11-23T21:52:33.913Z,51.6
2022-11-23T21:54:17.116Z,51.6
2022-11-23T21:57:43.797Z,51.7
2022-11-23T21:59:27.135Z,51.6
2022-11-23T22:01:10.617Z,51.6
2022-11-23T22:02:53.787Z,51.7
2022-11-23T22:04:37.331Z,51.7
2022-11-23T22:06:20.708Z,51.7
2022-11-23T22:08:04.146Z,51.7
2022-11-23T22:09:47.415Z,51.7
2022-11-23T22:13:13.837Z,51.7
2022-11-23T22:14:57.255Z,51.7
2022-11-23T22:16:40.628Z,51.7
2022-11-23T22:18:24.020Z,51.8
2022-11-23T22:20:07.464Z,51.8
2022-11-23T22:21:50.823Z,51.8
2022-11-23T22:23:34.209Z,51.8
2022-11-23T22:25:17.608Z,51.8
2022-11-23T22:28:44.094Z,51.8
2022-11-23T22:30:27.475Z,51.8
2022-11-23T22:32:10.881Z,51.8
2022-11-23T22:33:54.263Z,51.8
2022-11-23T22:35:37.678Z,51.8
2022-11-23T22:37:21.096Z,51.9
2022-11-23T22:39:04.468Z,51.8
2022-11-23T22:40:47.861Z,51.8
2022-11-23T22:42:31.579Z,51.8
2022-11-23T22:44:14.959Z,51.8
2022-11-23T22:45:58.346Z,51.8
2022-11-23T22:47:41.766Z,51.8
2022-11-23T22:49:25.154Z,51.8
2022-11-23T22:51:08.595Z,51.8
2022-11-23T22:52:51.944Z,51.8
2022-11-23T22:54:35.359Z,51.9
2022-11-23T22:59:44.567Z,51.8
2022-11-23T23:01:27.980Z,51.8
2022-11-23T23:03:11.357Z,51.9
2022-11-23T23:04:54.756Z,51.9
2022-11-23T23:06:38.166Z,51.9
2022-11-23T23:08:21.558Z,51.9
2022-11-23T23:10:04.959Z,51.9
2022-11-23T23:11:48.356Z,51.9
2022-11-23T23:15:14.818Z,51.9
2022-11-23T23:16:58.216Z,51.9
2022-11-23T23:18:41.611Z,51.9
2022-11-23T23:20:25.011Z,51.9
2022-11-23T23:22:08.401Z,51.8
2022-11-23T23:23:51.796Z,51.8
2022-11-23T23:25:35.198Z,51.8
2022-11-23T23:27:18.600Z,51.8
2022-11-23T23:30:45.052Z,51.9
2022-11-23T23:32:28.460Z,51.9
2022-11-23T23:34:11.854Z,51.9
2022-11-23T23:35:55.245Z,51.9
2022-11-23T23:37:38.650Z,51.9
2022-11-23T23:39:22.049Z,52
2022-11-23T23:41:05.436Z,52
2022-11-23T23:42:48.852Z,52
2022-11-23T23:46:15.318Z,51.9
2022-11-23T23:47:58.706Z,51.9
2022-11-23T23:49:42.108Z,51.9
2022-11-23T23:51:25.502Z,51.9
2022-11-23T23:53:08.911Z,51.9
2022-11-23T23:54:52.309Z,51.9
2022-11-23T23:56:35.694Z,52
2022-11-23T23:58:19.093Z,52
